sensor_id;sensor_type;location;lat;lon;timestamp;pressure;altitude;pressure_sealevel;temperature;humidity
70730;BME280;58315;53.336;55.932;2022-12-29T00:00:05;100629.31;;;-2.59;49.93
70730;BME280;58315;53.336;55.932;2022-12-29T00:02:38;100629.16;;;-2.53;50.11
70730;BME280;58315;53.336;55.932;2022-12-29T00:05:04;100627.38;;;-2.49;49.96
70730;BME280;58315;53.336;55.932;2022-12-29T00:07:30;100630.91;;;-2.52;49.40
70730;BME280;58315;53.336;55.932;2022-12-29T00:09:55;100627.53;;;-2.57;50.05
70730;BME280;58315;53.336;55.932;2022-12-29T00:12:21;100623.09;;;-2.50;49.96
70730;BME280;58315;53.336;55.932;2022-12-29T00:14:47;100622.19;;;-2.48;49.45
70730;BME280;58315;53.336;55.932;2022-12-29T00:17:31;100622.13;;;-2.45;49.44
70730;BME280;58315;53.336;55.932;2022-12-29T00:19:57;100607.56;;;-2.50;49.88
70730;BME280;58315;53.336;55.932;2022-12-29T00:22:41;100606.78;;;-2.54;49.35
70730;BME280;58315;53.336;55.932;2022-12-29T00:25:25;100604.16;;;-2.52;49.71
70730;BME280;58315;53.336;55.932;2022-12-29T00:28:09;100601.63;;;-2.55;49.24
70730;BME280;58315;53.336;55.932;2022-12-29T00:30:57;100600.84;;;-2.60;49.34
70730;BME280;58315;53.336;55.932;2022-12-29T00:33:42;100596.47;;;-2.55;49.14
70730;BME280;58315;53.336;55.932;2022-12-29T00:36:34;100587.84;;;-2.56;49.63
70730;BME280;58315;53.336;55.932;2022-12-29T00:39:10;100597.25;;;-2.52;49.41
70730;BME280;58315;53.336;55.932;2022-12-29T00:41:56;100587.13;;;-2.62;49.34
70730;BME280;58315;53.336;55.932;2022-12-29T00:44:41;100596.53;;;-2.60;49.10
70730;BME280;58315;53.336;55.932;2022-12-29T00:47:08;100595.81;;;-2.67;49.13
70730;BME280;58315;53.336;55.932;2022-12-29T00:49:34;100595.91;;;-2.71;49.46
70730;BME280;58315;53.336;55.932;2022-12-29T00:54:31;100594.41;;;-2.83;49.53
70730;BME280;58315;53.336;55.932;2022-12-29T00:56:57;100592.06;;;-2.97;49.25
70730;BME280;58315;53.336;55.932;2022-12-29T00:59:23;100593.00;;;-2.99;49.54
70730;BME280;58315;53.336;55.932;2022-12-29T01:01:49;100592.16;;;-3.00;49.19
70730;BME280;58315;53.336;55.932;2022-12-29T01:04:15;100591.56;;;-3.16;49.33
70730;BME280;58315;53.336;55.932;2022-12-29T01:06:43;100590.91;;;-3.25;49.80
70730;BME280;58315;53.336;55.932;2022-12-29T01:09:09;100595.13;;;-3.23;49.50
70730;BME280;58315;53.336;55.932;2022-12-29T01:11:53;100596.91;;;-3.25;49.81
70730;BME280;58315;53.336;55.932;2022-12-29T01:14:19;100594.34;;;-3.26;49.42
70730;BME280;58315;53.336;55.932;2022-12-29T01:16:45;100597.06;;;-3.34;49.39
70730;BME280;58315;53.336;55.932;2022-12-29T01:19:11;100593.72;;;-3.39;49.28
70730;BME280;58315;53.336;55.932;2022-12-29T01:21:37;100604.94;;;-3.42;49.34
70730;BME280;58315;53.336;55.932;2022-12-29T01:24:02;100596.25;;;-3.37;49.26
70730;BME280;58315;53.336;55.932;2022-12-29T01:26:28;100596.13;;;-3.28;49.52
70730;BME280;58315;53.336;55.932;2022-12-29T01:28:54;100592.69;;;-3.29;49.12
70730;BME280;58315;53.336;55.932;2022-12-29T01:31:19;100590.81;;;-3.21;49.25
70730;BME280;58315;53.336;55.932;2022-12-29T01:33:45;100595.13;;;-3.21;48.99
70730;BME280;58315;53.336;55.932;2022-12-29T01:36:12;100600.22;;;-3.18;49.14
70730;BME280;58315;53.336;55.932;2022-12-29T01:38:38;100594.19;;;-3.17;48.79
70730;BME280;58315;53.336;55.932;2022-12-29T01:41:04;100588.88;;;-3.11;48.78
70730;BME280;58315;53.336;55.932;2022-12-29T01:43:46;100594.91;;;-3.09;48.73
70730;BME280;58315;53.336;55.932;2022-12-29T01:46:19;100585.41;;;-3.07;48.61
70730;BME280;58315;53.336;55.932;2022-12-29T01:48:49;100590.63;;;-3.10;48.60
70730;BME280;58315;53.336;55.932;2022-12-29T01:51:16;100594.91;;;-3.09;48.61
70730;BME280;58315;53.336;55.932;2022-12-29T01:53:42;100594.84;;;-3.06;48.44
70730;BME280;58315;53.336;55.932;2022-12-29T01:56:09;100596.78;;;-3.17;48.63
70730;BME280;58315;53.336;55.932;2022-12-29T01:58:37;100599.50;;;-3.26;48.94
70730;BME280;58315;53.336;55.932;2022-12-29T02:01:04;100593.41;;;-3.21;48.80
70730;BME280;58315;53.336;55.932;2022-12-29T02:03:30;100594.19;;;-3.19;48.82
70730;BME280;58315;53.336;55.932;2022-12-29T02:06:02;100595.00;;;-3.15;49.29
70730;BME280;58315;53.336;55.932;2022-12-29T02:08:31;100599.31;;;-3.14;48.77
70730;BME280;58315;53.336;55.932;2022-12-29T02:10:58;100592.56;;;-3.23;48.98
70730;BME280;58315;53.336;55.932;2022-12-29T02:13:25;100587.41;;;-3.24;49.14
70730;BME280;58315;53.336;55.932;2022-12-29T02:18:59;100592.59;;;-3.24;49.23
70730;BME280;58315;53.336;55.932;2022-12-29T02:24:19;100593.34;;;-3.19;48.73
70730;BME280;58315;53.336;55.932;2022-12-29T02:35:01;100592.47;;;-3.18;48.72
70730;BME280;58315;53.336;55.932;2022-12-29T02:37:39;100593.25;;;-3.15;48.66
70730;BME280;58315;53.336;55.932;2022-12-29T02:42:36;100594.25;;;-3.20;49.09
70730;BME280;58315;53.336;55.932;2022-12-29T02:50:07;100592.38;;;-3.12;49.11
70730;BME280;58315;53.336;55.932;2022-12-29T02:52:35;100587.19;;;-3.12;48.90
70730;BME280;58315;53.336;55.932;2022-12-29T02:55:04;100592.41;;;-3.13;48.84
70730;BME280;58315;53.336;55.932;2022-12-29T02:57:32;100582.91;;;-3.15;49.09
70730;BME280;58315;53.336;55.932;2022-12-29T03:00:03;100582.88;;;-3.11;48.58
70730;BME280;58315;53.336;55.932;2022-12-29T03:07:46;100582.13;;;-3.18;48.46
70730;BME280;58315;53.336;55.932;2022-12-29T03:13:04;100588.16;;;-3.18;48.55
70730;BME280;58315;53.336;55.932;2022-12-29T03:21:15;100566.69;;;-3.21;48.61
70730;BME280;58315;53.336;55.932;2022-12-29T03:23:43;100572.72;;;-3.21;48.67
70730;BME280;58315;53.336;55.932;2022-12-29T03:26:13;100571.91;;;-3.24;48.35
70730;BME280;58315;53.336;55.932;2022-12-29T03:28:45;100573.50;;;-3.17;48.37
70730;BME280;58315;53.336;55.932;2022-12-29T03:31:17;100571.88;;;-3.21;48.34
70730;BME280;58315;53.336;55.932;2022-12-29T03:33:45;100571.00;;;-3.22;48.24
70730;BME280;58315;53.336;55.932;2022-12-29T03:36:14;100574.41;;;-3.20;48.46
70730;BME280;58315;53.336;55.932;2022-12-29T03:41:08;100575.31;;;-3.22;48.18
70730;BME280;58315;53.336;55.932;2022-12-29T03:43:34;100584.78;;;-3.21;48.74
70730;BME280;58315;53.336;55.932;2022-12-29T03:46:00;100576.16;;;-3.20;48.22
70730;BME280;58315;53.336;55.932;2022-12-29T03:48:26;100575.25;;;-3.18;48.47
70730;BME280;58315;53.336;55.932;2022-12-29T03:50:54;100576.16;;;-3.20;48.32
70730;BME280;58315;53.336;55.932;2022-12-29T03:53:20;100569.34;;;-3.26;48.59
70730;BME280;58315;53.336;55.932;2022-12-29T03:55:46;100579.66;;;-3.24;48.53
70730;BME280;58315;53.336;55.932;2022-12-29T03:58:12;100577.91;;;-3.22;48.61
70730;BME280;58315;53.336;55.932;2022-12-29T04:00:58;100579.69;;;-3.26;48.35
70730;BME280;58315;53.336;55.932;2022-12-29T04:03:24;100578.03;;;-3.28;48.35
70730;BME280;58315;53.336;55.932;2022-12-29T04:05:50;100581.47;;;-3.29;48.12
70730;BME280;58315;53.336;55.932;2022-12-29T04:08:16;100584.06;;;-3.29;48.45
70730;BME280;58315;53.336;55.932;2022-12-29T04:10:42;100584.88;;;-3.27;48.54
70730;BME280;58315;53.336;55.932;2022-12-29T04:13:08;100582.25;;;-3.24;48.24
70730;BME280;58315;53.336;55.932;2022-12-29T04:15:33;100580.56;;;-3.25;48.48
70730;BME280;58315;53.336;55.932;2022-12-29T04:18:00;100575.31;;;-3.22;48.46
70730;BME280;58315;53.336;55.932;2022-12-29T04:20:27;100579.72;;;-3.27;48.16
70730;BME280;58315;53.336;55.932;2022-12-29T04:23:12;100581.59;;;-3.37;48.16
70730;BME280;58315;53.336;55.932;2022-12-29T04:25:37;100573.97;;;-3.43;48.33
70730;BME280;58315;53.336;55.932;2022-12-29T04:28:06;100581.91;;;-3.54;48.59
70730;BME280;58315;53.336;55.932;2022-12-29T04:31:08;100585.44;;;-3.59;48.64
70730;BME280;58315;53.336;55.932;2022-12-29T04:33:38;100581.91;;;-3.55;48.55
70730;BME280;58315;53.336;55.932;2022-12-29T04:36:03;100586.19;;;-3.53;48.69
70730;BME280;58315;53.336;55.932;2022-12-29T04:38:29;100592.13;;;-3.48;48.52
70730;BME280;58315;53.336;55.932;2022-12-29T04:40:55;100599.03;;;-3.48;48.46
70730;BME280;58315;53.336;55.932;2022-12-29T04:43:24;100594.66;;;-3.43;48.52
70730;BME280;58315;53.336;55.932;2022-12-29T04:46:08;100600.63;;;-3.41;48.38
70730;BME280;58315;53.336;55.932;2022-12-29T04:48:44;100595.59;;;-3.49;48.33
70730;BME280;58315;53.336;55.932;2022-12-29T04:51:24;100594.03;;;-3.57;48.63
70730;BME280;58315;53.336;55.932;2022-12-29T04:53:50;100593.06;;;-3.52;48.51
70730;BME280;58315;53.336;55.932;2022-12-29T04:56:19;100600.81;;;-3.52;48.53
70730;BME280;58315;53.336;55.932;2022-12-29T04:58:49;100604.31;;;-3.54;48.46
70730;BME280;58315;53.336;55.932;2022-12-29T05:01:14;100603.38;;;-3.50;48.50
70730;BME280;58315;53.336;55.932;2022-12-29T05:03:40;100604.28;;;-3.53;48.47
70730;BME280;58315;53.336;55.932;2022-12-29T05:06:06;100604.53;;;-3.70;48.63
70730;BME280;58315;53.336;55.932;2022-12-29T05:08:32;100607.13;;;-3.70;48.54
70730;BME280;58315;53.336;55.932;2022-12-29T05:11:00;100603.59;;;-3.64;48.70
70730;BME280;58315;53.336;55.932;2022-12-29T05:13:26;100608.72;;;-3.61;48.67
70730;BME280;58315;53.336;55.932;2022-12-29T05:15:52;100608.69;;;-3.58;48.57
70730;BME280;58315;53.336;55.932;2022-12-29T05:18:19;100600.84;;;-3.55;48.63
70730;BME280;58315;53.336;55.932;2022-12-29T05:20:45;100599.94;;;-3.51;48.44
70730;BME280;58315;53.336;55.932;2022-12-29T05:23:11;100599.19;;;-3.59;48.47
70730;BME280;58315;53.336;55.932;2022-12-29T05:25:37;100595.75;;;-3.58;48.68
70730;BME280;58315;53.336;55.932;2022-12-29T05:28:32;100601.66;;;-3.51;48.64
70730;BME280;58315;53.336;55.932;2022-12-29T05:31:08;100593.00;;;-3.49;48.50
70730;BME280;58315;53.336;55.932;2022-12-29T05:33:34;100592.19;;;-3.51;48.29
70730;BME280;58315;53.336;55.932;2022-12-29T05:36:04;100605.00;;;-3.45;48.32
70730;BME280;58315;53.336;55.932;2022-12-29T05:38:30;100596.25;;;-3.37;48.07
70730;BME280;58315;53.336;55.932;2022-12-29T05:40:55;100597.94;;;-3.35;47.97
70730;BME280;58315;53.336;55.932;2022-12-29T05:43:47;100591.13;;;-3.41;47.80
70730;BME280;58315;53.336;55.932;2022-12-29T05:46:28;100594.56;;;-3.38;47.89
70730;BME280;58315;53.336;55.932;2022-12-29T05:49:06;100585.91;;;-3.36;47.64
70730;BME280;58315;53.336;55.932;2022-12-29T05:55:11;100586.75;;;-3.35;47.56
70730;BME280;58315;53.336;55.932;2022-12-29T05:57:38;100583.06;;;-3.21;47.60
70730;BME280;58315;53.336;55.932;2022-12-29T06:00:10;100586.31;;;-3.11;47.60
70730;BME280;58315;53.336;55.932;2022-12-29T06:02:43;100589.84;;;-3.15;47.43
70730;BME280;58315;53.336;55.932;2022-12-29T06:05:09;100586.41;;;-3.16;47.91
70730;BME280;58315;53.336;55.932;2022-12-29T06:07:36;100590.63;;;-3.11;47.70
70730;BME280;58315;53.336;55.932;2022-12-29T06:10:04;100585.31;;;-3.04;47.88
70730;BME280;58315;53.336;55.932;2022-12-29T06:12:33;100589.44;;;-2.92;47.74
70730;BME280;58315;53.336;55.932;2022-12-29T06:14:59;100582.41;;;-2.87;47.53
70730;BME280;58315;53.336;55.932;2022-12-29T06:17:28;100585.81;;;-2.83;47.61
70730;BME280;58315;53.336;55.932;2022-12-29T06:19:54;100587.44;;;-2.78;47.27
70730;BME280;58315;53.336;55.932;2022-12-29T06:22:20;100588.50;;;-2.89;46.98
70730;BME280;58315;53.336;55.932;2022-12-29T06:24:46;100597.09;;;-2.89;47.33
70730;BME280;58315;53.336;55.932;2022-12-29T06:27:12;100591.22;;;-2.96;47.50
70730;BME280;58315;53.336;55.932;2022-12-29T06:29:39;100588.53;;;-2.93;47.82
70730;BME280;58315;53.336;55.932;2022-12-29T06:32:07;100593.63;;;-2.86;47.20
70730;BME280;58315;53.336;55.932;2022-12-29T06:34:34;100585.81;;;-2.83;47.53
70730;BME280;58315;53.336;55.932;2022-12-29T06:37:00;100583.06;;;-2.74;47.83
70730;BME280;58315;53.336;55.932;2022-12-29T06:39:26;100580.38;;;-2.71;47.48
70730;BME280;58315;53.336;55.932;2022-12-29T06:42:02;100587.50;;;-2.82;47.36
70730;BME280;58315;53.336;55.932;2022-12-29T06:44:49;100583.13;;;-2.79;47.97
70730;BME280;58315;53.336;55.932;2022-12-29T06:47:15;100580.63;;;-2.83;47.96
70730;BME280;58315;53.336;55.932;2022-12-29T06:49:41;100583.09;;;-2.77;48.13
70730;BME280;58315;53.336;55.932;2022-12-29T06:52:07;100576.78;;;-2.62;47.88
70730;BME280;58315;53.336;55.932;2022-12-29T06:54:33;100566.09;;;-2.49;47.13
70730;BME280;58315;53.336;55.932;2022-12-29T06:56:58;100566.03;;;-2.46;46.83
70730;BME280;58315;53.336;55.932;2022-12-29T06:59:24;100566.00;;;-2.43;46.55
70730;BME280;58315;53.336;55.932;2022-12-29T07:01:51;100563.47;;;-2.46;46.87
70730;BME280;58315;53.336;55.932;2022-12-29T07:04:17;100567.59;;;-2.37;47.11
70730;BME280;58315;53.336;55.932;2022-12-29T07:06:43;100565.38;;;-2.54;47.11
70730;BME280;58315;53.336;55.932;2022-12-29T07:09:09;100557.31;;;-2.40;47.18
70730;BME280;58315;53.336;55.932;2022-12-29T07:11:35;100561.63;;;-2.40;47.27
70730;BME280;58315;53.336;55.932;2022-12-29T07:14:01;100557.25;;;-2.37;46.69
70730;BME280;58315;53.336;55.932;2022-12-29T07:16:27;100552.78;;;-2.30;47.08
70730;BME280;58315;53.336;55.932;2022-12-29T07:18:54;100545.03;;;-2.32;46.12
70730;BME280;58315;53.336;55.932;2022-12-29T07:21:20;100547.63;;;-2.32;46.86
70730;BME280;58315;53.336;55.932;2022-12-29T07:23:47;100556.06;;;-2.24;46.56
70730;BME280;58315;53.336;55.932;2022-12-29T07:26:13;100561.13;;;-2.17;46.27
70730;BME280;58315;53.336;55.932;2022-12-29T07:28:40;100549.81;;;-2.13;46.73
70730;BME280;58315;53.336;55.932;2022-12-29T07:31:11;100550.59;;;-2.10;46.77
70730;BME280;58315;53.336;55.932;2022-12-29T07:33:38;100552.16;;;-2.03;46.20
70730;BME280;58315;53.336;55.932;2022-12-29T07:36:05;100546.78;;;-1.93;46.57
70730;BME280;58315;53.336;55.932;2022-12-29T07:38:30;100550.22;;;-1.93;46.48
70730;BME280;58315;53.336;55.932;2022-12-29T07:40:57;100548.47;;;-1.92;46.47
70730;BME280;58315;53.336;55.932;2022-12-29T07:43:23;100549.25;;;-1.89;46.24
70730;BME280;58315;53.336;55.932;2022-12-29T07:46:09;100549.88;;;-1.79;46.37
70730;BME280;58315;53.336;55.932;2022-12-29T07:48:35;100540.19;;;-1.73;45.97
70730;BME280;58315;53.336;55.932;2022-12-29T07:51:01;100542.41;;;-1.57;45.03
70730;BME280;58315;53.336;55.932;2022-12-29T07:53:27;100540.84;;;-1.63;45.71
70730;BME280;58315;53.336;55.932;2022-12-29T07:55:52;100534.19;;;-1.73;44.98
70730;BME280;58315;53.336;55.932;2022-12-29T07:58:18;100548.53;;;-1.96;45.40
70730;BME280;58315;53.336;55.932;2022-12-29T08:00:44;100545.06;;;-1.95;45.56
70730;BME280;58315;53.336;55.932;2022-12-29T08:03:10;100538.97;;;-1.92;45.26
70730;BME280;58315;53.336;55.932;2022-12-29T08:05:35;100548.66;;;-2.02;45.47
70730;BME280;58315;53.336;55.932;2022-12-29T08:08:01;100537.47;;;-2.02;45.42
70730;BME280;58315;53.336;55.932;2022-12-29T08:10:27;100541.31;;;-2.19;45.03
70730;BME280;58315;53.336;55.932;2022-12-29T08:12:53;100529.94;;;-2.13;45.36
70730;BME280;58315;53.336;55.932;2022-12-29T08:15:18;100534.94;;;-2.04;45.53
70730;BME280;58315;53.336;55.932;2022-12-29T08:17:44;100527.16;;;-2.04;45.10
70730;BME280;58315;53.336;55.932;2022-12-29T08:20:10;100538.13;;;-1.94;45.50
70730;BME280;58315;53.336;55.932;2022-12-29T08:22:36;100531.22;;;-1.93;45.37
70730;BME280;58315;53.336;55.932;2022-12-29T08:25:02;100530.66;;;-2.06;45.15
70730;BME280;58315;53.336;55.932;2022-12-29T08:27:28;100530.06;;;-2.17;46.40
70730;BME280;58315;53.336;55.932;2022-12-29T08:29:54;100517.69;;;-2.05;45.52
70730;BME280;58315;53.336;55.932;2022-12-29T08:32:20;100518.34;;;-1.97;44.91
70730;BME280;58315;53.336;55.932;2022-12-29T08:34:45;100517.38;;;-1.92;45.30
70730;BME280;58315;53.336;55.932;2022-12-29T08:37:11;100513.25;;;-2.00;45.24
70730;BME280;58315;53.336;55.932;2022-12-29T08:39:37;100516.81;;;-2.05;45.76
70730;BME280;58315;53.336;55.932;2022-12-29T08:42:03;100507.16;;;-1.99;45.97
70730;BME280;58315;53.336;55.932;2022-12-29T08:44:28;100515.44;;;-1.83;45.77
70730;BME280;58315;53.336;55.932;2022-12-29T08:46:54;100506.06;;;-1.88;45.87
70730;BME280;58315;53.336;55.932;2022-12-29T08:49:20;100507.34;;;-2.06;46.36
70730;BME280;58315;53.336;55.932;2022-12-29T08:51:45;100497.38;;;-1.87;46.44
70730;BME280;58315;53.336;55.932;2022-12-29T08:54:11;100498.03;;;-1.79;46.02
70730;BME280;58315;53.336;55.932;2022-12-29T08:56:37;100494.50;;;-1.75;45.76
70730;BME280;58315;53.336;55.932;2022-12-29T08:59:03;100487.59;;;-1.75;45.79
70730;BME280;58315;53.336;55.932;2022-12-29T09:01:30;100491.03;;;-1.74;46.08
70730;BME280;58315;53.336;55.932;2022-12-29T09:03:56;100484.81;;;-1.68;47.00
70730;BME280;58315;53.336;55.932;2022-12-29T09:06:22;100478.00;;;-1.71;46.54
70730;BME280;58315;53.336;55.932;2022-12-29T09:08:47;100476.69;;;-1.55;45.50
70730;BME280;58315;53.336;55.932;2022-12-29T09:11:15;100480.91;;;-1.51;46.33
70730;BME280;58315;53.336;55.932;2022-12-29T09:13:41;100481.50;;;-1.41;46.09
70730;BME280;58315;53.336;55.932;2022-12-29T09:16:06;100476.16;;;-1.35;46.16
70730;BME280;58315;53.336;55.932;2022-12-29T09:18:32;100475.88;;;-1.24;45.67
70730;BME280;58315;53.336;55.932;2022-12-29T09:20:59;100473.00;;;-1.15;45.72
70730;BME280;58315;53.336;55.932;2022-12-29T09:23:25;100473.84;;;-1.13;45.49
70730;BME280;58315;53.336;55.932;2022-12-29T09:25:51;100472.09;;;-1.12;45.77
70730;BME280;58315;53.336;55.932;2022-12-29T09:28:17;100466.16;;;-1.17;45.86
70730;BME280;58315;53.336;55.932;2022-12-29T09:30:43;100470.50;;;-1.18;46.14
70730;BME280;58315;53.336;55.932;2022-12-29T09:33:09;100466.69;;;-1.05;45.63
70730;BME280;58315;53.336;55.932;2022-12-29T09:35:34;100471.13;;;-1.10;46.32
70730;BME280;58315;53.336;55.932;2022-12-29T09:38:00;100464.47;;;-1.18;46.44
70730;BME280;58315;53.336;55.932;2022-12-29T09:43:01;100452.97;;;-1.10;46.24
70730;BME280;58315;53.336;55.932;2022-12-29T09:45:32;100451.28;;;-1.11;46.19
70730;BME280;58315;53.336;55.932;2022-12-29T09:48:03;100451.03;;;-1.02;45.96
70730;BME280;58315;53.336;55.932;2022-12-29T09:50:30;100457.31;;;-1.10;45.90
70730;BME280;58315;53.336;55.932;2022-12-29T09:53:01;100446.22;;;-1.15;45.81
70730;BME280;58315;53.336;55.932;2022-12-29T09:55:35;100449.69;;;-1.15;46.28
70730;BME280;58315;53.336;55.932;2022-12-29T09:58:03;100450.91;;;-1.28;46.44
70730;BME280;58315;53.336;55.932;2022-12-29T10:00:36;100444.84;;;-1.27;45.98
70730;BME280;58315;53.336;55.932;2022-12-29T10:03:06;100438.63;;;-1.22;45.84
70730;BME280;58315;53.336;55.932;2022-12-29T10:10:55;100431.34;;;-1.38;46.87
70730;BME280;58315;53.336;55.932;2022-12-29T10:21:27;100441.53;;;-1.65;46.39
70730;BME280;58315;53.336;55.932;2022-12-29T10:23:58;100449.56;;;-1.74;47.12
70730;BME280;58315;53.336;55.932;2022-12-29T10:26:27;100451.31;;;-1.76;47.09
70730;BME280;58315;53.336;55.932;2022-12-29T10:28:56;100447.75;;;-1.72;47.25
70730;BME280;58315;53.336;55.932;2022-12-29T10:31:23;100439.13;;;-1.71;46.75
70730;BME280;58315;53.336;55.932;2022-12-29T10:33:51;100434.94;;;-1.77;47.39
70730;BME280;58315;53.336;55.932;2022-12-29T10:36:27;100441.22;;;-1.85;46.98
70730;BME280;58315;53.336;55.932;2022-12-29T10:39:01;100438.50;;;-1.81;47.49
70730;BME280;58315;53.336;55.932;2022-12-29T10:41:32;100441.72;;;-1.73;47.56
70730;BME280;58315;53.336;55.932;2022-12-29T10:44:01;100438.28;;;-1.72;47.41
70730;BME280;58315;53.336;55.932;2022-12-29T10:46:28;100446.81;;;-1.68;47.38
70730;BME280;58315;53.336;55.932;2022-12-29T10:48:55;100447.81;;;-1.74;47.73
70730;BME280;58315;53.336;55.932;2022-12-29T10:51:22;100441.03;;;-1.78;47.32
70730;BME280;58315;53.336;55.932;2022-12-29T10:56:40;100450.47;;;-1.75;48.05
70730;BME280;58315;53.336;55.932;2022-12-29T10:59:16;100451.31;;;-1.75;47.67
70730;BME280;58315;53.336;55.932;2022-12-29T11:01:56;100437.25;;;-1.66;48.05
70730;BME280;58315;53.336;55.932;2022-12-29T11:07:09;100440.66;;;-1.64;47.56
70730;BME280;58315;53.336;55.932;2022-12-29T11:09:36;100434.38;;;-1.55;47.84
70730;BME280;58315;53.336;55.932;2022-12-29T11:12:18;100442.84;;;-1.50;47.89
70730;BME280;58315;53.336;55.932;2022-12-29T11:14:44;100441.94;;;-1.48;48.05
70730;BME280;58315;53.336;55.932;2022-12-29T11:17:14;100433.19;;;-1.43;47.62
70730;BME280;58315;53.336;55.932;2022-12-29T11:19:40;100444.88;;;-1.60;47.95
70730;BME280;58315;53.336;55.932;2022-12-29T11:22:12;100438.78;;;-1.59;47.68
70730;BME280;58315;53.336;55.932;2022-12-29T11:24:45;100434.53;;;-1.61;47.93
70730;BME280;58315;53.336;55.932;2022-12-29T11:27:19;100434.25;;;-1.51;47.89
70730;BME280;58315;53.336;55.932;2022-12-29T11:29:48;100429.06;;;-1.51;47.39
70730;BME280;58315;53.336;55.932;2022-12-29T11:34:43;100428.00;;;-1.43;48.22
70730;BME280;58315;53.336;55.932;2022-12-29T11:37:16;100423.75;;;-1.46;47.65
70730;BME280;58315;53.336;55.932;2022-12-29T11:42:17;100419.66;;;-1.55;47.95
70730;BME280;58315;53.336;55.932;2022-12-29T11:44:45;100417.81;;;-1.50;48.45
70730;BME280;58315;53.336;55.932;2022-12-29T11:49:50;100423.19;;;-1.57;47.71
70730;BME280;58315;53.336;55.932;2022-12-29T11:52:20;100419.22;;;-1.71;48.46
70730;BME280;58315;53.336;55.932;2022-12-29T11:54:47;100418.47;;;-1.74;48.73
70730;BME280;58315;53.336;55.932;2022-12-29T11:57:13;100410.78;;;-1.77;48.15
70730;BME280;58315;53.336;55.932;2022-12-29T11:59:41;100409.84;;;-1.75;48.27
70730;BME280;58315;53.336;55.932;2022-12-29T12:04:36;100419.31;;;-1.74;48.09
70730;BME280;58315;53.336;55.932;2022-12-29T12:09:33;100406.63;;;-1.84;48.45
70730;BME280;58315;53.336;55.932;2022-12-29T12:12:00;100412.75;;;-1.87;48.46
70730;BME280;58315;53.336;55.932;2022-12-29T12:14:29;100416.34;;;-1.92;48.33
70730;BME280;58315;53.336;55.932;2022-12-29T12:17:21;100414.75;;;-1.98;48.73
70730;BME280;58315;53.336;55.932;2022-12-29T12:19:54;100407.03;;;-2.00;48.39
70730;BME280;58315;53.336;55.932;2022-12-29T12:24:52;100412.09;;;-1.95;48.44
70730;BME280;58315;53.336;55.932;2022-12-29T12:29:52;100405.56;;;-2.10;48.35
70730;BME280;58315;53.336;55.932;2022-12-29T12:32:23;100408.22;;;-2.13;48.58
70730;BME280;58315;53.336;55.932;2022-12-29T12:34:51;100411.84;;;-2.19;48.27
70730;BME280;58315;53.336;55.932;2022-12-29T12:42:38;100419.56;;;-2.17;48.32
70730;BME280;58315;53.336;55.932;2022-12-29T12:50:25;100421.25;;;-2.16;48.33
70730;BME280;58315;53.336;55.932;2022-12-29T12:52:58;100428.81;;;-2.07;48.61
70730;BME280;58315;53.336;55.932;2022-12-29T13:03:21;100425.19;;;-2.01;48.88
70730;BME280;58315;53.336;55.932;2022-12-29T13:16:10;100429.69;;;-2.08;48.95
70730;BME280;58315;53.336;55.932;2022-12-29T13:18:46;100431.53;;;-2.13;48.43
70730;BME280;58315;53.336;55.932;2022-12-29T13:23:49;100431.59;;;-2.16;48.53
70730;BME280;58315;53.336;55.932;2022-12-29T13:31:34;100433.41;;;-2.18;48.61
70730;BME280;58315;53.336;55.932;2022-12-29T13:34:16;100434.38;;;-2.22;48.93
70730;BME280;58315;53.336;55.932;2022-12-29T13:36:51;100435.22;;;-2.23;48.61
70730;BME280;58315;53.336;55.932;2022-12-29T13:39:19;100433.78;;;-2.33;49.02
70730;BME280;58315;53.336;55.932;2022-12-29T13:41:56;100431.31;;;-2.39;48.73
70730;BME280;58315;53.336;55.932;2022-12-29T13:44:23;100429.59;;;-2.39;48.58
70730;BME280;58315;53.336;55.932;2022-12-29T13:46:50;100432.22;;;-2.40;48.79
70730;BME280;58315;53.336;55.932;2022-12-29T13:49:21;100429.63;;;-2.40;49.06
70730;BME280;58315;53.336;55.932;2022-12-29T13:51:53;100433.13;;;-2.43;48.56
70730;BME280;58315;53.336;55.932;2022-12-29T14:01:46;100433.44;;;-2.55;49.07
70730;BME280;58315;53.336;55.932;2022-12-29T14:04:26;100432.47;;;-2.53;49.09
70730;BME280;58315;53.336;55.932;2022-12-29T14:07:03;100438.53;;;-2.52;49.28
70730;BME280;58315;53.336;55.932;2022-12-29T14:12:18;100444.47;;;-2.49;49.25
70730;BME280;58315;53.336;55.932;2022-12-29T14:14:44;100440.06;;;-2.45;48.80
70730;BME280;58315;53.336;55.932;2022-12-29T14:17:10;100440.25;;;-2.53;49.10
70730;BME280;58315;53.336;55.932;2022-12-29T14:19:40;100435.84;;;-2.49;49.11
70730;BME280;58315;53.336;55.932;2022-12-29T14:22:07;100432.22;;;-2.40;49.27
70730;BME280;58315;53.336;55.932;2022-12-29T14:34:50;100426.16;;;-2.04;48.87
70730;BME280;58315;53.336;55.932;2022-12-29T14:39:48;100428.09;;;-2.12;48.48
70730;BME280;58315;53.336;55.932;2022-12-29T14:42:15;100435.03;;;-2.14;48.68
70730;BME280;58315;53.336;55.932;2022-12-29T14:47:22;100423.88;;;-2.17;48.54
70730;BME280;58315;53.336;55.932;2022-12-29T14:49:52;100431.59;;;-2.16;48.88
70730;BME280;58315;53.336;55.932;2022-12-29T14:52:25;100426.44;;;-2.16;48.45
70730;BME280;58315;53.336;55.932;2022-12-29T14:57:50;100425.50;;;-2.12;48.79
70730;BME280;58315;53.336;55.932;2022-12-29T15:00:21;100427.13;;;-2.09;48.65
70730;BME280;58315;53.336;55.932;2022-12-29T15:03:13;100425.44;;;-2.10;48.83
70730;BME280;58315;53.336;55.932;2022-12-29T15:05:37;100432.16;;;-2.03;48.95
70730;BME280;58315;53.336;55.932;2022-12-29T15:08:06;100426.84;;;-1.97;48.62
70730;BME280;58315;53.336;55.932;2022-12-29T15:10:37;100431.16;;;-1.98;48.39
70730;BME280;58315;53.336;55.932;2022-12-29T15:13:05;100429.31;;;-1.92;48.80
70730;BME280;58315;53.336;55.932;2022-12-29T15:15:35;100428.34;;;-1.88;49.38
70730;BME280;58315;53.336;55.932;2022-12-29T15:18:24;100424.91;;;-1.89;48.50